Time;durP1;ratioP1;P1;durP2;ratioP2;P2;SDS_P1;SDS_P2;PMS_P1;PMS_P2;Temp;Humidity;BMP_temperature;BMP_pressure;BME280_temperature;BME280_humidity;BME280_pressure;Samples;Min_cycle;Max_cycle;Signal;HPM_P1;HPM_P2
2022/05/29 00:02:52;;;;;;;5.30;4.90;;;;;;;26.14;42.17;94664.25;6211409;28;103069;-59
2022/05/29 00:05:56;;;;;;;5.33;4.90;;;;;;;26.17;41.91;94678.88;6210338;28;103104;-57
2022/05/29 00:08:59;;;;;;;6.10;5.30;;;;;;;26.15;42.67;94692.63;6211158;28;103559;-59
2022/05/29 00:12:04;;;;;;;5.20;4.80;;;;;;;26.15;42.17;94681.13;6201509;28;104480;-57
2022/05/29 00:15:09;;;;;;;5.60;5.20;;;;;;;26.12;42.61;94704.03;6210689;28;102978;-56
2022/05/29 00:18:13;;;;;;;5.00;4.60;;;;;;;26.12;42.27;94722.03;6211308;28;102986;-56
2022/05/29 00:21:16;;;;;;;5.97;5.50;;;;;;;26.11;42.16;94702.47;6205636;28;104086;-56
2022/05/29 00:24:20;;;;;;;5.27;4.87;;;;;;;26.11;42.51;94643.47;6206431;28;104059;-60
2022/05/29 00:27:23;;;;;;;5.37;4.97;;;;;;;26.11;42.37;94650.75;6211145;28;104148;-61
2022/05/29 00:30:26;;;;;;;5.17;4.77;;;;;;;26.11;42.28;94648.06;6210281;28;103149;-61
2022/05/29 00:33:31;;;;;;;5.40;4.90;;;;;;;26.11;42.39;94627.38;6199742;28;102929;-60
2022/05/29 00:36:40;;;;;;;5.03;4.63;;;;;;;26.09;42.24;94616.22;6212723;28;103121;-61
2022/05/29 00:39:44;;;;;;;4.90;4.50;;;;;;;26.07;42.50;94607.75;6214764;28;103224;-61
2022/05/29 00:42:47;;;;;;;5.03;4.63;;;;;;;26.08;42.37;94601.25;6214933;28;103250;-61
2022/05/29 00:45:54;;;;;;;4.93;4.53;;;;;;;26.07;42.55;94610.41;6204437;28;103095;-61
2022/05/29 00:48:58;;;;;;;5.70;5.10;;;;;;;26.10;42.30;94608.97;6214208;28;102941;-61
2022/05/29 00:52:06;;;;;;;5.30;4.90;;;;;;;26.07;42.38;94604.28;6215069;28;104015;-61
2022/05/29 00:55:13;;;;;;;5.10;4.70;;;;;;;26.07;42.15;94621.16;6198177;28;103131;-61
2022/05/29 00:58:17;;;;;;;5.03;4.63;;;;;;;26.08;42.33;94667.53;6185714;28;104276;-61
2022/05/29 01:01:20;;;;;;;4.30;4.00;;;;;;;26.10;42.21;94631.19;6189663;28;103217;-60
2022/05/29 01:04:25;;;;;;;5.20;4.70;;;;;;;26.07;42.40;94540.69;6189568;28;103275;-60
2022/05/29 01:07:30;;;;;;;5.20;4.80;;;;;;;26.08;42.33;94568.28;6179587;28;104018;-61
2022/05/29 01:10:55;;;;;;;4.90;4.40;;;;;;;26.06;42.53;94559.81;6188954;28;103117;-61
2022/05/29 01:14:08;;;;;;;4.90;4.43;;;;;;;26.06;42.12;94544.50;6189493;28;103131;-61
2022/05/29 01:17:21;;;;;;;5.13;4.73;;;;;;;26.06;42.48;94554.44;6189485;28;103983;-61
2022/05/29 01:20:40;;;;;;;4.60;4.30;;;;;;;26.05;42.54;94582.41;6182653;28;103065;-60
2022/05/29 01:24:23;;;;;;;4.90;4.50;;;;;;;26.03;42.49;94590.75;6189478;28;103245;-61
2022/05/29 01:27:54;;;;;;;5.00;4.60;;;;;;;26.03;42.26;94619.47;6189799;28;104355;-61
2022/05/29 01:31:07;;;;;;;5.10;4.70;;;;;;;26.01;42.22;94570.78;6179067;28;102947;-61
2022/05/29 01:34:29;;;;;;;5.67;5.17;;;;;;;26.04;42.34;94519.91;6188808;28;103031;-62
2022/05/29 01:37:43;;;;;;;5.73;5.23;;;;;;;26.03;42.80;94569.31;6189304;28;104201;-60
2022/05/29 01:40:54;;;;;;;4.60;4.20;;;;;;;26.04;42.12;94576.22;6181608;28;104172;-60
2022/05/29 01:44:04;;;;;;;5.33;4.90;;;;;;;26.00;42.61;94578.03;6189099;28;104323;-60
2022/05/29 01:47:15;;;;;;;6.00;5.10;;;;;;;26.02;42.49;94561.59;6187980;28;102985;-60
2022/05/29 01:50:23;;;;;;;5.33;4.93;;;;;;;25.99;42.63;94550.41;6188726;28;103227;-61
2022/05/29 01:53:32;;;;;;;5.47;4.97;;;;;;;26.00;42.50;94548.53;6178188;28;103957;-60
2022/05/29 01:56:39;;;;;;;5.20;4.80;;;;;;;26.00;42.42;94543.19;6212061;28;104043;-59
2022/05/29 01:59:48;;;;;;;4.67;4.37;;;;;;;25.99;42.46;94544.28;6213820;28;104311;-58
2022/05/29 02:02:58;;;;;;;5.30;4.80;;;;;;;25.98;42.61;94538.13;6209461;28;103921;-57
2022/05/29 02:06:07;;;;;;;5.00;4.60;;;;;;;25.97;42.41;94551.88;6207583;28;103148;-57
2022/05/29 02:09:12;;;;;;;5.27;4.87;;;;;;;25.97;42.76;94551.88;6213111;28;103424;-58
2022/05/29 02:12:19;;;;;;;5.27;4.77;;;;;;;26.00;42.52;94551.22;6212977;28;102792;-56
2022/05/29 02:15:29;;;;;;;4.70;4.30;;;;;;;25.98;42.07;94540.03;6203123;28;105133;-57
2022/05/29 02:18:38;;;;;;;5.17;4.67;;;;;;;25.97;42.27;94530.44;6213472;28;104332;-57
2022/05/29 02:21:45;;;;;;;5.30;4.87;;;;;;;25.97;42.38;94525.06;6213073;28;103059;-57
2022/05/29 02:24:52;;;;;;;5.00;4.60;;;;;;;25.97;42.50;94525.06;6213083;28;102857;-58
2022/05/29 02:28:01;;;;;;;4.53;4.23;;;;;;;25.95;42.25;94528.09;6202172;28;104286;-57
2022/05/29 02:31:15;;;;;;;4.60;4.30;;;;;;;25.96;42.88;94528.88;6213220;28;103104;-57
2022/05/29 02:34:30;;;;;;;4.47;4.17;;;;;;;25.95;42.59;94521.94;6212862;28;103111;-59
2022/05/29 02:37:41;;;;;;;4.80;4.40;;;;;;;25.94;42.48;94512.34;6203066;28;104594;-57
2022/05/29 02:40:49;;;;;;;4.93;4.53;;;;;;;25.95;42.09;94498.59;6212828;28;104251;-58
2022/05/29 02:43:59;;;;;;;5.43;5.00;;;;;;;25.94;42.35;94491.69;6212997;28;103266;-56
2022/05/29 02:47:24;;;;;;;4.63;4.33;;;;;;;25.94;41.96;94485.53;6212178;28;103131;-57
2022/05/29 02:50:38;;;;;;;4.60;4.30;;;;;;;25.95;42.54;94481.72;6201197;28;103264;-57
2022/05/29 02:53:44;;;;;;;4.70;4.40;;;;;;;25.94;42.45;94474.81;6212704;28;104253;-56
2022/05/29 02:56:47;;;;;;;4.70;4.30;;;;;;;25.95;42.35;94474.47;6188607;28;104336;-57
2022/05/29 02:59:55;;;;;;;4.80;4.50;;;;;;;25.94;42.32;94472.91;6181255;28;103531;-59
2022/05/29 03:03:11;;;;;;;4.97;4.57;;;;;;;25.93;42.38;94470.56;6186509;28;104024;-57
2022/05/29 03:06:27;;;;;;;5.20;4.80;;;;;;;25.94;42.52;94466.78;6187500;28;103107;-59
2022/05/29 03:09:54;;;;;;;4.70;4.30;;;;;;;25.93;42.40;94459.84;6186986;28;104244;-58
2022/05/29 03:13:08;;;;;;;4.80;4.50;;;;;;;25.92;42.39;94456.41;6176773;28;102768;-59
2022/05/29 03:16:26;;;;;;;4.53;4.23;;;;;;;25.93;42.16;94457.16;6186827;28;103426;-56
2022/05/29 03:19:42;;;;;;;4.20;3.90;;;;;;;25.93;42.24;94454.50;6187179;28;103463;-57
2022/05/29 03:22:57;;;;;;;4.57;4.27;;;;;;;25.91;42.43;94448.69;6177178;28;104042;-57
2022/05/29 03:26:06;;;;;;;4.40;4.10;;;;;;;25.92;42.36;94434.16;6186540;28;103365;-58
2022/05/29 03:29:13;;;;;;;5.20;4.70;;;;;;;25.93;42.34;94443.78;6187005;28;103270;-58
2022/05/29 03:32:17;;;;;;;5.00;4.60;;;;;;;25.91;41.96;94456.75;6186669;28;103369;-57
2022/05/29 03:35:25;;;;;;;4.60;4.30;;;;;;;25.93;42.42;94451.81;6176450;28;103052;-58
2022/05/29 03:38:29;;;;;;;4.37;3.97;;;;;;;25.91;42.19;94446.81;6187191;28;104182;-56
2022/05/29 03:41:39;;;;;;;4.37;4.00;;;;;;;25.90;42.70;94447.94;6186751;28;104298;-56
2022/05/29 03:44:42;;;;;;;5.30;4.90;;;;;;;25.91;41.92;94443.34;6182474;28;103173;-59
2022/05/29 03:47:46;;;;;;;4.80;4.37;;;;;;;25.90;42.21;94441.78;6180641;28;105697;-57
2022/05/29 03:50:49;;;;;;;5.00;4.53;;;;;;;25.89;42.12;94449.06;6186656;28;104164;-56
2022/05/29 03:53:53;;;;;;;4.80;4.40;;;;;;;25.89;42.54;94446.38;6186930;28;104180;-57
2022/05/29 03:56:56;;;;;;;3.90;3.60;;;;;;;25.91;42.16;94448.69;6201467;28;105165;-57
2022/05/29 03:59:59;;;;;;;4.00;3.70;;;;;;;25.91;42.23;94440.66;6210782;28;103934;-58
2022/05/29 04:03:03;;;;;;;4.87;4.23;;;;;;;25.91;42.31;94436.06;6211365;28;103314;-56
2022/05/29 04:06:07;;;;;;;4.47;4.07;;;;;;;25.90;42.37;94436.41;6211244;28;104132;-57
2022/05/29 04:12:32;;;;;;;4.33;4.03;;;;;;;25.92;42.34;94426.91;6216117;28;104233;-57
2022/05/29 04:15:36;;;;;;;4.47;4.07;;;;;;;25.92;41.86;94426.13;6215310;28;102961;-56
2022/05/29 04:18:39;;;;;;;4.97;4.57;;;;;;;25.94;42.04;94426.56;6214199;28;103387;-58
2022/05/29 04:21:43;;;;;;;4.97;4.57;;;;;;;25.92;42.28;94426.13;6207761;28;104772;-57
2022/05/29 04:24:47;;;;;;;4.13;3.83;;;;;;;25.91;42.37;94424.56;6215761;28;104190;-56
2022/05/29 04:27:50;;;;;;;4.70;4.30;;;;;;;25.91;42.20;94429.94;6215150;28;103078;-56
2022/05/29 04:30:54;;;;;;;4.37;4.07;;;;;;;25.92;42.21;94426.91;6205868;28;103452;-57
2022/05/29 04:33:57;;;;;;;4.53;4.23;;;;;;;25.91;42.13;94441.44;6214346;28;103231;-56
2022/05/29 04:37:00;;;;;;;4.03;3.73;;;;;;;25.92;42.01;94442.22;6215473;28;104204;-57
2022/05/29 04:40:05;;;;;;;4.50;4.10;;;;;;;25.91;42.45;94449.47;6215038;28;103179;-56
2022/05/29 04:43:09;;;;;;;4.47;4.13;;;;;;;25.92;42.40;94444.91;6204362;28;103470;-57
2022/05/29 04:46:12;;;;;;;4.40;4.00;;;;;;;25.95;42.23;94446.88;6214761;28;102971;-56
2022/05/29 04:49:16;;;;;;;4.00;3.70;;;;;;;25.95;42.39;94453.03;6214855;28;104296;-57
2022/05/29 04:52:19;;;;;;;4.37;4.07;;;;;;;25.94;42.26;94448.78;6215161;28;103980;-59
2022/05/29 04:55:23;;;;;;;4.13;3.83;;;;;;;25.96;42.12;94440.41;6191554;28;103317;-57
2022/05/29 04:58:28;;;;;;;4.83;4.43;;;;;;;25.95;42.52;94438.84;6190385;28;104272;-57
2022/05/29 05:01:31;;;;;;;4.30;4.00;;;;;;;25.97;42.52;94437.38;6189772;28;103118;-57
2022/05/29 05:04:35;;;;;;;4.23;3.93;;;;;;;25.97;41.96;94440.03;6184739;28;102990;-56
2022/05/29 05:07:38;;;;;;;4.40;4.00;;;;;;;25.98;41.93;94446.19;6182876;28;103200;-57
2022/05/29 05:10:43;;;;;;;4.33;4.03;;;;;;;26.00;42.29;94449.31;6188581;28;104304;-56
2022/05/29 05:13:46;;;;;;;4.40;4.10;;;;;;;25.99;41.92;94435.13;6188432;28;103262;-56
2022/05/29 05:16:50;;;;;;;3.83;3.53;;;;;;;26.01;41.81;94439.38;6177449;28;103569;-56
2022/05/29 05:19:53;;;;;;;3.93;3.73;;;;;;;26.01;42.10;94434.78;6187760;28;103116;-57
2022/05/29 05:22:56;;;;;;;4.30;3.90;;;;;;;26.04;42.44;94431.41;6187878;28;104203;-55
2022/05/29 05:26:01;;;;;;;3.90;3.60;;;;;;;26.04;42.38;94431.41;6188693;28;104206;-58
2022/05/29 05:29:05;;;;;;;4.17;3.87;;;;;;;26.03;41.85;94416.47;6178145;28;103662;-57
2022/05/29 05:32:08;;;;;;;4.87;4.47;;;;;;;26.07;42.01;94424.59;6187981;28;103269;-58
2022/05/29 05:35:12;;;;;;;4.40;4.10;;;;;;;26.08;42.14;94418.13;6188277;28;103077;-56
2022/05/29 05:38:15;;;;;;;3.90;3.60;;;;;;;26.09;42.04;94414.31;6185514;28;103155;-59
2022/05/29 05:41:20;;;;;;;4.20;3.90;;;;;;;26.08;41.88;94424.25;6182701;28;104238;-57
2022/05/29 05:44:23;;;;;;;4.20;3.90;;;;;;;26.09;41.97;94411.63;6188558;28;104213;-57
2022/05/29 05:47:26;;;;;;;4.03;3.73;;;;;;;26.07;41.71;94419.25;6188480;28;104138;-59
2022/05/29 05:50:31;;;;;;;3.93;3.63;;;;;;;26.09;42.24;94420.44;6177345;28;103123;-57
2022/05/29 05:53:35;;;;;;;4.40;4.00;;;;;;;26.16;41.73;94419.84;6187666;28;102984;-57
2022/05/29 05:56:43;;;;;;;4.10;3.80;;;;;;;26.21;42.02;94412.31;6210941;28;103204;-56
2022/05/29 05:59:47;;;;;;;4.60;4.30;;;;;;;26.27;41.32;94418.19;6213230;28;104116;-57
2022/05/29 06:02:50;;;;;;;4.20;3.90;;;;;;;26.32;41.31;94427.88;6202033;28;103175;-57
2022/05/29 06:05:53;;;;;;;4.00;3.70;;;;;;;26.36;41.17;94428.72;6212617;28;104390;-56
2022/05/29 06:08:57;;;;;;;4.07;3.77;;;;;;;26.40;41.68;94426.94;6211741;28;103107;-57
2022/05/29 06:12:03;;;;;;;4.30;4.00;;;;;;;26.45;41.26;94427.44;6212202;28;103309;-58
2022/05/29 06:15:07;;;;;;;3.87;3.57;;;;;;;26.47;41.60;94427.84;6202042;28;103147;-57
2022/05/29 06:18:10;;;;;;;3.90;3.60;;;;;;;26.42;41.61;94411.25;6212550;28;104195;-57
2022/05/29 06:21:14;;;;;;;4.10;3.80;;;;;;;26.42;41.22;94416.63;6211634;28;104350;-57
2022/05/29 06:24:18;;;;;;;4.23;3.87;;;;;;;26.47;41.35;94427.09;6205329;28;103778;-59
2022/05/29 06:27:22;;;;;;;4.40;4.10;;;;;;;26.41;41.70;94405.13;6210495;28;103046;-58
2022/05/29 06:30:25;;;;;;;3.97;3.67;;;;;;;26.45;41.64;94391.78;6211914;28;103207;-58
2022/05/29 06:33:29;;;;;;;4.00;3.60;;;;;;;26.47;41.54;94394.88;6212152;28;103633;-57
2022/05/29 06:36:32;;;;;;;3.90;3.60;;;;;;;26.52;41.65;94392.69;6201119;28;103362;-58
2022/05/29 06:39:36;;;;;;;3.67;3.47;;;;;;;26.58;41.55;94387.84;6211989;28;103336;-57
2022/05/29 06:42:41;;;;;;;4.30;3.30;;;;;;;26.61;40.97;94381.78;6211681;28;104682;-57
2022/05/29 06:45:44;;;;;;;3.70;3.40;;;;;;;26.65;41.22;94382.66;6211043;28;103287;-56
2022/05/29 06:48:47;;;;;;;3.90;3.60;;;;;;;26.69;41.05;94380.81;6201525;28;104193;-58
2022/05/29 06:51:51;;;;;;;3.80;3.50;;;;;;;26.73;40.79;94395.13;6210502;28;103582;-57
2022/05/29 06:54:54;;;;;;;4.00;3.70;;;;;;;26.76;41.48;94386.34;6203312;28;104033;-56
2022/05/29 06:57:58;;;;;;;3.50;3.23;;;;;;;26.80;41.12;94370.31;6181984;28;103937;-57
2022/05/29 07:07:45;;;;;;;4.00;3.70;;;;;;;26.93;41.01;94370.97;6186225;28;103153;-56
2022/05/29 07:10:48;;;;;;;3.80;3.50;;;;;;;26.94;40.70;94369.84;6176250;28;105394;-56
2022/05/29 07:13:55;;;;;;;3.47;3.27;;;;;;;26.97;41.13;94391.38;6186509;28;103291;-56
2022/05/29 07:16:58;;;;;;;4.30;4.00;;;;;;;27.01;41.10;94370.75;6186108;28;103189;-57
2022/05/29 07:20:01;;;;;;;3.07;2.80;;;;;;;27.03;40.59;94367.69;6186092;28;103189;-57
2022/05/29 07:23:04;;;;;;;4.10;3.70;;;;;;;27.07;40.94;94371.25;6174856;28;103214;-57
2022/05/29 07:26:07;;;;;;;3.57;3.37;;;;;;;27.07;40.73;94363.97;6185825;28;103180;-58
2022/05/29 07:29:12;;;;;;;3.30;3.10;;;;;;;27.11;40.85;94369.41;6185985;28;102831;-57
2022/05/29 07:32:15;;;;;;;3.90;3.60;;;;;;;27.13;40.33;94364.44;6180503;28;104154;-57
2022/05/29 07:35:19;;;;;;;3.70;3.47;;;;;;;27.15;40.29;94362.19;6179889;28;103069;-60
2022/05/29 07:38:22;;;;;;;3.70;3.50;;;;;;;27.18;40.83;94358.78;6205045;28;104202;-58
2022/05/29 07:44:47;;;;;;;8.83;3.70;;;;;;;27.08;42.13;94364.75;6191198;28;103624;-61
2022/05/29 07:47:50;;;;;;;9.67;3.63;;;;;;;27.03;41.29;94362.31;6187310;28;103139;-61
2022/05/29 07:50:54;;;;;;;4.73;2.90;;;;;;;27.04;41.94;94355.81;6209814;28;104304;-61
2022/05/29 07:53:58;;;;;;;6.43;2.90;;;;;;;26.74;41.19;94351.03;6203348;28;103209;-65
2022/05/29 07:57:01;;;;;;;6.20;3.33;;;;;;;26.78;41.76;94338.44;6186122;28;104012;-60
2022/05/29 08:00:08;;;;;;;7.37;2.90;;;;;;;26.90;42.05;94344.81;6182068;28;103215;-62
2022/05/29 08:03:12;;;;;;;5.10;3.07;;;;;;;26.98;41.94;94330.38;6184068;28;103395;-61
2022/05/29 08:06:15;;;;;;;7.37;3.40;;;;;;;27.02;41.17;94339.28;6179763;28;102990;-61
2022/05/29 08:09:19;;;;;;;7.20;3.20;;;;;;;26.54;41.25;94338.66;6189094;28;103847;-62
2022/05/29 08:12:22;;;;;;;6.80;3.27;;;;;;;26.55;40.97;94341.03;6190930;28;103074;-61
2022/05/29 08:15:33;;;;;;;5.77;2.80;;;;;;;26.71;40.73;94343.66;6185428;28;104050;-61
2022/05/29 08:18:36;;;;;;;10.17;3.20;;;;;;;26.78;41.04;94330.41;6169149;28;103487;-61
2022/05/29 08:21:39;;;;;;;8.97;3.47;;;;;;;26.86;40.55;94329.41;6184222;28;103466;-61
2022/05/29 08:31:25;;;;;;;7.00;2.80;;;;;;;26.41;41.37;94318.47;6187753;28;103820;-60
2022/05/29 08:34:28;;;;;;;4.50;2.70;;;;;;;26.43;41.27;94326.94;6202776;28;104005;-60
2022/05/29 08:37:35;;;;;;;5.93;2.77;;;;;;;26.43;39.77;94326.94;6191124;28;103196;-60
2022/05/29 08:40:44;;;;;;;8.20;3.40;;;;;;;26.43;39.34;94316.22;6178075;28;103749;-62
2022/05/29 08:43:58;;;;;;;9.90;2.87;;;;;;;26.51;39.58;94320.59;6186528;28;104138;-62
2022/05/29 08:47:04;;;;;;;7.37;3.27;;;;;;;26.44;38.90;94337.34;6180631;28;103172;-60
2022/05/29 08:50:11;;;;;;;6.30;3.40;;;;;;;26.50;38.60;94319.81;6188324;28;104694;-61
2022/05/29 08:53:29;;;;;;;6.30;3.00;;;;;;;26.49;38.57;94315.56;6182394;28;104150;-60
2022/05/29 08:56:46;;;;;;;9.00;3.07;;;;;;;26.21;38.90;94321.13;6185081;28;104247;-61
2022/05/29 08:59:52;;;;;;;9.63;3.67;;;;;;;26.35;38.38;94311.81;6190211;28;103284;-61
2022/05/29 09:03:29;;;;;;;12.23;3.13;;;;;;;26.43;38.99;94303.59;6197257;28;104451;-62
2022/05/29 09:06:36;;;;;;;5.87;2.80;;;;;;;26.41;39.36;94315.78;6191856;28;104132;-60
2022/05/29 09:09:45;;;;;;;5.67;3.03;;;;;;;26.17;39.06;94311.44;6192568;28;104662;-61
2022/05/29 09:12:52;;;;;;;10.47;2.83;;;;;;;26.31;39.00;94308.28;6193469;28;103049;-60
2022/05/29 09:16:02;;;;;;;6.43;3.00;;;;;;;26.31;39.70;94303.69;6184900;28;103194;-60
2022/05/29 09:19:13;;;;;;;7.60;3.00;;;;;;;26.50;39.30;94305.63;6188901;28;103316;-61
2022/05/29 09:22:22;;;;;;;9.07;4.03;;;;;;;26.64;39.22;94299.81;6182147;28;103905;-61
2022/05/29 09:25:31;;;;;;;5.53;3.60;;;;;;;26.52;39.13;94300.69;6185180;28;103253;-63
2022/05/29 09:28:37;;;;;;;8.43;3.93;;;;;;;26.57;39.81;94300.41;6184671;28;103792;-60
2022/05/29 09:31:40;;;;;;;8.10;3.17;;;;;;;26.67;39.91;94297.19;6198274;28;103143;-62
2022/05/29 09:34:56;;;;;;;9.93;3.27;;;;;;;26.66;40.13;94298.31;6199614;28;104153;-60
2022/05/29 09:38:06;;;;;;;5.40;3.10;;;;;;;26.42;39.91;94287.84;6182266;28;103505;-62
2022/05/29 09:41:17;;;;;;;11.90;3.83;;;;;;;26.38;40.32;94271.66;6195847;28;103795;-61
2022/05/29 09:44:23;;;;;;;9.00;4.30;;;;;;;26.40;40.10;94277.47;6190126;28;104361;-62
2022/05/29 09:50:57;;;;;;;5.03;3.07;;;;;;;26.51;40.59;94264.25;6183441;28;103203;-60
2022/05/29 09:54:04;;;;;;;4.63;3.50;;;;;;;26.45;40.89;94258.38;6192070;28;103370;-61
2022/05/29 09:57:10;;;;;;;8.30;3.60;;;;;;;26.46;41.13;94251.13;6190803;28;103229;-60
2022/05/29 10:00:24;;;;;;;8.93;4.57;;;;;;;26.43;41.50;94236.50;6187198;28;103617;-61
2022/05/29 10:03:39;;;;;;;6.50;3.13;;;;;;;26.53;41.23;94237.81;6183565;28;104091;-62
2022/05/29 10:06:47;;;;;;;10.80;4.63;;;;;;;26.46;42.13;94235.00;6204466;28;104344;-60
2022/05/29 10:09:58;;;;;;;8.03;4.17;;;;;;;26.28;43.14;94234.66;6189224;28;103018;-60
2022/05/29 10:13:03;;;;;;;9.73;4.70;;;;;;;26.42;42.55;94231.50;6172704;28;103257;-61
2022/05/29 10:16:07;;;;;;;6.80;3.60;;;;;;;26.44;42.14;94227.31;6193611;28;103266;-62
2022/05/29 10:19:14;;;;;;;7.50;3.47;;;;;;;26.48;42.19;94227.38;6194111;28;104570;-61
2022/05/29 10:22:32;;;;;;;6.80;3.90;;;;;;;26.23;43.03;94234.94;6177630;28;104631;-61
2022/05/29 10:25:38;;;;;;;8.27;3.67;;;;;;;26.23;42.10;94245.69;6197896;28;104358;-57
2022/05/29 10:28:42;;;;;;;6.73;3.20;;;;;;;26.34;42.08;94238.59;6186985;28;103343;-57
2022/05/29 10:31:49;;;;;;;7.23;3.80;;;;;;;26.42;41.72;94244.91;6198265;28;103536;-59
2022/05/29 10:35:04;;;;;;;7.77;3.80;;;;;;;26.45;42.01;94244.19;6178306;28;103388;-58
2022/05/29 10:38:24;;;;;;;8.20;4.07;;;;;;;26.42;42.17;94228.81;6185672;28;103632;-58
2022/05/29 10:41:35;;;;;;;10.37;4.47;;;;;;;26.44;42.01;94224.63;6198959;28;103360;-59
2022/05/29 10:44:42;;;;;;;6.63;4.20;;;;;;;26.49;41.85;94229.72;6179136;28;104581;-60
2022/05/29 10:47:58;;;;;;;9.03;3.90;;;;;;;26.45;42.44;94222.72;6186156;28;104150;-60
2022/05/29 10:51:13;;;;;;;6.97;3.80;;;;;;;26.46;42.30;94218.91;6185277;28;104399;-58
2022/05/29 10:54:32;;;;;;;6.83;4.17;;;;;;;26.41;42.58;94213.84;6195244;28;103300;-60
2022/05/29 10:58:10;;;;;;;6.60;3.83;;;;;;;26.26;43.10;94232.34;6174714;27;104106;-58
2022/05/29 11:05:13;;;;;;;8.40;3.83;;;;;;;26.42;42.81;94196.63;6179895;28;103129;-58
2022/05/29 11:08:36;;;;;;;7.13;3.97;;;;;;;26.49;42.50;94191.38;6190224;28;104156;-57
2022/05/29 11:11:57;;;;;;;7.47;3.87;;;;;;;26.56;42.27;94186.16;6195932;28;103424;-58
2022/05/29 11:15:18;;;;;;;7.43;4.20;;;;;;;26.61;42.99;94177.81;6200868;28;104001;-59
2022/05/29 11:18:59;;;;;;;8.77;4.10;;;;;;;26.66;43.12;94177.53;6187972;28;103031;-58
2022/05/29 11:22:15;;;;;;;7.63;4.10;;;;;;;26.64;43.63;94177.13;6163329;28;103865;-58
2022/05/29 11:25:38;;;;;;;5.57;3.50;;;;;;;26.64;43.78;94163.69;6180072;28;103834;-59
2022/05/29 11:29:00;;;;;;;8.57;4.33;;;;;;;26.65;43.39;94151.06;6195560;28;103962;-59
2022/05/29 11:32:35;;;;;;;7.37;3.90;;;;;;;26.67;43.46;94146.88;6182162;28;105418;-58
2022/05/29 11:36:01;;;;;;;8.53;4.40;;;;;;;26.70;43.26;94146.16;6201953;28;103202;-59
2022/05/29 11:39:30;;;;;;;7.90;4.33;;;;;;;26.71;43.97;94133.50;6187047;28;104118;-59
2022/05/29 11:42:48;;;;;;;6.33;3.73;;;;;;;26.72;43.67;94127.03;6192525;28;103335;-59
2022/05/29 11:52:55;;;;;;;7.43;3.90;;;;;;;26.70;44.01;94103.22;6195022;28;103348;-59
2022/05/29 11:56:04;;;;;;;7.80;4.73;;;;;;;26.71;44.38;94120.88;6191947;28;104340;-59
2022/05/29 11:59:16;;;;;;;6.83;4.80;;;;;;;26.72;44.04;94100.97;6209324;28;103185;-57
2022/05/29 12:02:33;;;;;;;10.60;5.00;;;;;;;26.72;44.15;94095.59;6209468;28;103084;-58
2022/05/29 12:05:44;;;;;;;9.53;5.80;;;;;;;26.71;44.48;94112.03;6200587;28;104120;-56
2022/05/29 12:08:58;;;;;;;9.50;5.70;;;;;;;26.71;44.52;94107.44;6208508;28;103265;-57
2022/05/29 12:12:06;;;;;;;10.17;6.20;;;;;;;26.68;44.23;94097.44;6206895;28;103259;-57
2022/05/29 12:15:13;;;;;;;6.70;5.90;;;;;;;26.69;44.42;94092.84;6210421;28;104022;-57
2022/05/29 12:18:20;;;;;;;9.10;7.30;;;;;;;26.67;44.83;94095.88;6197731;28;103343;-56
2022/05/29 12:21:31;;;;;;;10.80;8.37;;;;;;;26.66;43.77;94101.59;6209416;28;104178;-57
2022/05/29 12:24:39;;;;;;;10.03;9.00;;;;;;;26.63;44.23;94087.00;6209641;28;102815;-58
2022/05/29 12:27:43;;;;;;;10.10;8.43;;;;;;;26.65;44.57;94089.31;6200264;28;103180;-59
2022/05/29 12:30:49;;;;;;;9.47;8.50;;;;;;;26.65;44.40;94065.16;6208461;28;103119;-58
2022/05/29 12:33:54;;;;;;;10.00;8.20;;;;;;;26.69;45.06;94071.38;6213769;28;103267;-58
2022/05/29 12:37:14;;;;;;;10.33;8.10;;;;;;;26.67;44.74;94052.16;6213315;28;103136;-58
2022/05/29 12:40:47;;;;;;;9.70;8.70;;;;;;;26.69;45.82;94047.97;6202976;28;104173;-58
2022/05/29 12:44:29;;;;;;;12.00;8.87;;;;;;;26.71;45.98;94053.00;6213023;28;104094;-56
2022/05/29 12:48:17;;;;;;;10.40;8.60;;;;;;;26.70;45.99;94052.22;6213589;28;104107;-59
2022/05/29 12:51:56;;;;;;;9.80;8.90;;;;;;;26.72;46.23;94047.28;6138519;28;103429;-58
2022/05/29 12:55:38;;;;;;;10.30;8.70;;;;;;;26.71;46.56;94044.94;6189522;28;103291;-59
2022/05/29 12:59:18;;;;;;;10.27;9.27;;;;;;;26.73;46.44;94061.47;6147975;28;103776;-58
2022/05/29 13:02:44;;;;;;;10.83;8.77;;;;;;;26.70;46.10;94025.38;6192429;28;103523;-58
2022/05/29 13:06:09;;;;;;;9.67;8.77;;;;;;;26.72;45.84;94019.66;6188034;28;104209;-58
2022/05/29 13:09:51;;;;;;;13.90;9.87;;;;;;;26.72;45.49;94011.63;6195162;28;103394;-59
2022/05/29 13:13:07;;;;;;;10.10;9.20;;;;;;;26.71;45.35;93999.31;6165569;28;103492;-58
2022/05/29 13:16:23;;;;;;;12.33;8.73;;;;;;;26.53;45.53;94007.06;6188619;28;103011;-63
2022/05/29 13:20:06;;;;;;;11.90;9.27;;;;;;;26.48;44.64;94007.38;6191064;28;104021;-58
2022/05/29 13:23:10;;;;;;;12.07;9.10;;;;;;;26.59;44.93;93986.84;6184485;28;103262;-57
2022/05/29 13:26:24;;;;;;;10.70;8.50;;;;;;;26.67;44.53;94014.59;6177311;28;103078;-57
2022/05/29 13:29:40;;;;;;;12.60;9.27;;;;;;;26.68;44.79;93994.66;6200324;28;103265;-57
2022/05/29 13:32:44;;;;;;;11.87;9.50;;;;;;;26.71;45.14;93978.59;6200919;28;104113;-58
2022/05/29 13:35:47;;;;;;;11.50;9.80;;;;;;;26.70;45.25;93987.03;6201947;28;104525;-59
2022/05/29 13:38:56;;;;;;;11.00;9.17;;;;;;;26.67;44.82;93977.78;6212291;28;103172;-57
2022/05/29 13:42:02;;;;;;;11.07;8.90;;;;;;;26.70;45.00;93979.75;6209837;28;104495;-58
2022/05/29 13:45:45;;;;;;;12.20;9.13;;;;;;;26.72;44.57;93964.09;6206506;28;103159;-58
2022/05/29 13:49:22;;;;;;;15.00;9.57;;;;;;;26.72;44.51;93949.88;6198675;27;104052;-59
2022/05/29 13:52:31;;;;;;;11.73;8.53;;;;;;;26.72;45.00;93949.88;6202678;28;103921;-57
2022/05/29 13:55:53;;;;;;;9.33;8.40;;;;;;;26.71;45.13;93948.31;6207675;28;103203;-58
2022/05/29 14:06:02;;;;;;;10.33;7.90;;;;;;;26.71;45.18;93932.97;6206657;28;104351;-58
2022/05/29 14:09:08;;;;;;;11.17;8.03;;;;;;;26.72;44.76;93941.84;6210829;28;103318;-59
2022/05/29 14:12:17;;;;;;;8.30;7.50;;;;;;;26.71;44.59;93935.66;6195738;28;103060;-58
2022/05/29 14:15:32;;;;;;;8.37;7.57;;;;;;;26.69;44.74;93943.31;6202221;28;103635;-58
2022/05/29 14:18:42;;;;;;;9.50;7.70;;;;;;;26.53;44.83;93939.97;6212877;28;103640;-62
2022/05/29 14:22:04;;;;;;;8.70;7.80;;;;;;;26.45;44.92;93947.16;6200998;28;104871;-61
2022/05/29 14:25:25;;;;;;;9.10;7.60;;;;;;;26.49;45.04;93942.59;6196294;28;103184;-61
2022/05/29 14:28:49;;;;;;;10.63;7.40;;;;;;;26.61;45.65;93946.22;6197796;28;103467;-60
2022/05/29 14:32:08;;;;;;;14.90;7.60;;;;;;;26.46;45.34;93945.25;6204802;28;103951;-61
2022/05/29 14:35:26;;;;;;;11.87;8.00;;;;;;;26.49;45.37;93947.19;6204032;28;103827;-60
2022/05/29 14:39:03;;;;;;;14.97;8.20;;;;;;;26.44;46.23;93928.75;6205002;28;103399;-60
2022/05/29 14:42:20;;;;;;;10.07;6.43;;;;;;;26.38;45.88;93935.53;6203131;28;103291;-60
2022/05/29 14:45:27;;;;;;;13.40;7.90;;;;;;;26.52;45.68;93922.31;6199098;28;104873;-60
2022/05/29 14:48:38;;;;;;;9.27;7.37;;;;;;;26.61;46.52;93912.13;6209676;28;102945;-61
2022/05/29 14:51:46;;;;;;;13.03;7.50;;;;;;;26.38;46.88;93922.13;6204789;28;102901;-61
2022/05/29 14:54:55;;;;;;;9.40;7.70;;;;;;;26.32;46.72;93934.28;6206896;28;104525;-60
2022/05/29 14:58:00;;;;;;;10.50;7.07;;;;;;;26.39;45.94;93919.09;6212064;28;102804;-60
2022/05/29 15:01:06;;;;;;;10.70;7.67;;;;;;;26.52;46.08;93923.09;6210067;28;103622;-60
2022/05/29 15:04:15;;;;;;;9.63;7.27;;;;;;;26.60;46.21;93924.00;6202344;28;104482;-61
2022/05/29 15:10:48;;;;;;;8.87;7.03;;;;;;;26.71;46.86;93911.50;6215332;28;102849;-60
2022/05/29 15:13:58;;;;;;;10.97;8.00;;;;;;;26.76;46.02;93916.59;6207493;28;102811;-60
2022/05/29 15:17:01;;;;;;;8.93;7.53;;;;;;;26.77;46.68;93918.13;6213070;28;103034;-61
2022/05/29 15:24:08;;;;;;;10.97;7.97;;;;;;;26.79;46.81;93933.88;6209712;28;104912;-61
2022/05/29 15:27:04;;;;;;;12.03;8.70;;;;;;;26.70;45.85;93966.31;6194950;28;103320;-59
2022/05/29 15:30:12;;;;;;;9.33;6.50;;;;;;;26.49;43.72;93992.81;6202773;28;103211;-60
2022/05/29 15:33:18;;;;;;;8.47;5.40;;;;;;;26.28;43.81;94002.06;6205352;28;104196;-60